createdAt,value
2023-05-02T00:01:21.494Z,2.85
2023-05-02T00:03:48.819Z,3.00
2023-05-02T00:06:15.945Z,2.97
2023-05-02T00:08:43.084Z,3.50
2023-05-02T00:11:10.087Z,4.38
2023-05-02T00:13:36.989Z,3.58
2023-05-02T00:16:04.212Z,3.28
2023-05-02T00:18:31.166Z,3.80
2023-05-02T00:20:58.139Z,3.40
2023-05-02T00:23:25.045Z,3.67
2023-05-02T00:25:51.965Z,2.85
2023-05-02T00:28:18.921Z,3.00
2023-05-02T00:30:47.100Z,2.97
2023-05-02T00:33:15.296Z,2.90
2023-05-02T00:35:42.577Z,3.30
2023-05-02T00:38:09.773Z,3.53
2023-05-02T00:40:51.296Z,2.60
2023-05-02T00:43:18.545Z,2.72
2023-05-02T00:45:48.669Z,2.90
2023-05-02T00:48:18.018Z,3.00
2023-05-02T00:50:45.005Z,2.60
2023-05-02T00:53:12.050Z,2.53
2023-05-02T00:55:39.131Z,2.63
2023-05-02T00:58:11.994Z,2.10
2023-05-02T01:01:08.222Z,2.05
2023-05-02T01:03:44.066Z,2.20
2023-05-02T01:06:35.433Z,2.17
2023-05-02T01:09:02.384Z,1.85
2023-05-02T01:11:29.265Z,1.42
2023-05-02T01:14:02.039Z,1.83
2023-05-02T01:16:29.519Z,1.80
2023-05-02T01:18:57.416Z,1.80
2023-05-02T01:21:25.092Z,1.80
2023-05-02T01:24:06.899Z,1.70
2023-05-02T01:26:59.123Z,1.58
2023-05-02T01:29:29.618Z,1.65
2023-05-02T01:31:58.916Z,1.67
2023-05-02T01:34:27.786Z,2.35
2023-05-02T01:36:57.499Z,2.20
2023-05-02T01:39:26.920Z,2.05
2023-05-02T01:41:57.585Z,1.70
2023-05-02T01:44:25.597Z,1.15
2023-05-02T01:46:55.064Z,1.42
2023-05-02T01:49:24.389Z,1.65
2023-05-02T01:51:52.845Z,1.33
2023-05-02T01:54:23.168Z,1.40
2023-05-02T01:56:52.204Z,1.33
2023-05-02T01:59:23.965Z,1.10
2023-05-02T02:01:52.384Z,1.35
2023-05-02T02:04:20.931Z,1.23
2023-05-02T02:06:53.705Z,1.00
2023-05-02T02:09:20.969Z,1.38
2023-05-02T02:11:55.716Z,1.20
2023-05-02T02:14:27.834Z,1.50
2023-05-02T02:16:58.016Z,1.17
2023-05-02T02:19:25.174Z,1.20
2023-05-02T02:21:55.414Z,1.15
2023-05-02T02:24:23.888Z,0.98
2023-05-02T02:26:51.680Z,1.00
2023-05-02T02:29:18.615Z,1.17
2023-05-02T02:31:46.688Z,1.15
2023-05-02T02:34:15.476Z,1.10
2023-05-02T02:36:57.134Z,1.00
2023-05-02T02:40:02.848Z,1.10
2023-05-02T02:42:50.534Z,0.90
2023-05-02T02:45:23.148Z,1.00
2023-05-02T02:48:14.091Z,0.90
2023-05-02T02:50:46.712Z,0.75
2023-05-02T02:53:32.635Z,1.00
2023-05-02T02:56:16.412Z,0.90
2023-05-02T02:59:16.286Z,1.00
2023-05-02T03:01:54.148Z,0.80
2023-05-02T03:04:24.067Z,0.80
2023-05-02T03:06:51.219Z,1.00
2023-05-02T03:09:18.833Z,1.08
2023-05-02T03:11:47.950Z,0.80
2023-05-02T03:14:16.477Z,0.80
2023-05-02T03:16:43.517Z,0.77
2023-05-02T03:19:14.915Z,0.73
2023-05-02T03:21:42.770Z,0.70
2023-05-02T03:24:19.397Z,0.90
2023-05-02T03:26:48.265Z,0.75
2023-05-02T03:29:18.625Z,0.70
2023-05-02T03:31:46.607Z,0.93
2023-05-02T03:34:13.761Z,0.93
2023-05-02T03:36:41.567Z,0.80
2023-05-02T03:39:08.554Z,0.82
2023-05-02T03:41:35.808Z,0.95
2023-05-02T03:44:07.319Z,0.70
2023-05-02T03:46:34.842Z,0.70
2023-05-02T03:49:05.131Z,0.90
2023-05-02T03:51:33.879Z,0.98
2023-05-02T03:54:02.923Z,1.00
2023-05-02T03:56:30.158Z,1.00
2023-05-02T03:59:08.965Z,0.90
2023-05-02T04:01:36.061Z,0.85
2023-05-02T04:04:03.324Z,1.05
2023-05-02T04:06:35.758Z,1.02
2023-05-02T04:09:07.550Z,1.13
2023-05-02T04:11:42.029Z,0.80
2023-05-02T04:14:10.146Z,0.82
2023-05-02T04:16:37.104Z,1.00
2023-05-02T04:19:04.708Z,0.77
2023-05-02T04:21:31.963Z,0.85
2023-05-02T04:23:59.435Z,0.90
2023-05-02T04:26:26.901Z,0.90
2023-05-02T04:28:59.758Z,0.82
2023-05-02T04:31:27.374Z,0.80
2023-05-02T04:33:54.609Z,1.10
2023-05-02T04:36:26.217Z,0.85
2023-05-02T04:38:53.689Z,0.70
2023-05-02T04:41:21.588Z,0.70
2023-05-02T04:43:54.778Z,0.90
2023-05-02T04:46:21.782Z,0.90
2023-05-02T04:48:48.752Z,1.75
2023-05-02T04:51:17.072Z,0.80
2023-05-02T04:53:47.081Z,1.00
2023-05-02T04:56:15.325Z,0.80
2023-05-02T04:58:42.762Z,1.20
2023-05-02T05:01:11.095Z,1.10
2023-05-02T05:03:38.338Z,1.05
2023-05-02T05:06:07.300Z,1.20
2023-05-02T05:08:34.800Z,1.00
2023-05-02T05:11:02.437Z,1.00
2023-05-02T05:13:29.828Z,1.05
2023-05-02T05:15:58.228Z,1.00
2023-05-02T05:18:28.903Z,1.00
2023-05-02T05:20:56.012Z,1.10
2023-05-02T05:23:22.980Z,1.20
2023-05-02T05:25:50.019Z,0.82
2023-05-02T05:28:18.920Z,0.85
2023-05-02T05:30:46.659Z,1.10
2023-05-02T05:33:17.687Z,1.10
2023-05-02T05:35:45.062Z,1.30
2023-05-02T05:38:12.052Z,1.42
2023-05-02T05:40:41.957Z,1.20
2023-05-02T05:43:09.488Z,1.13
2023-05-02T05:45:38.515Z,0.95
2023-05-02T05:48:06.648Z,1.17
2023-05-02T05:50:39.417Z,1.20
2023-05-02T05:53:06.463Z,1.10
2023-05-02T05:55:36.574Z,1.23
2023-05-02T05:58:05.441Z,1.10
2023-05-02T06:00:36.902Z,1.17
2023-05-02T06:03:05.564Z,1.00
2023-05-02T06:05:35.255Z,1.52
2023-05-02T06:08:02.304Z,1.40
2023-05-02T06:10:30.819Z,1.23
2023-05-02T06:12:58.272Z,1.13
2023-05-02T06:15:30.122Z,1.23
2023-05-02T06:17:57.127Z,1.50
2023-05-02T06:20:24.086Z,2.67
2023-05-02T06:22:50.978Z,1.52
2023-05-02T06:25:18.002Z,1.70
2023-05-02T06:27:44.946Z,1.80
2023-05-02T06:30:12.264Z,2.22
2023-05-02T06:32:39.237Z,1.60
2023-05-02T06:35:06.810Z,1.75
2023-05-02T06:37:35.595Z,1.88
2023-05-02T06:40:03.389Z,1.95
2023-05-02T06:42:31.167Z,1.50
2023-05-02T06:44:58.066Z,2.13
2023-05-02T06:47:25.869Z,1.50
2023-05-02T06:49:53.812Z,1.70
2023-05-02T06:52:20.752Z,2.17
2023-05-02T06:54:47.681Z,2.22
2023-05-02T06:57:14.628Z,2.22
2023-05-02T06:59:41.669Z,2.00
2023-05-02T07:02:08.675Z,2.20
2023-05-02T07:04:35.700Z,2.42
2023-05-02T07:07:03.893Z,1.80
2023-05-02T07:09:31.099Z,2.53
2023-05-02T07:11:58.053Z,1.83
2023-05-02T07:14:25.083Z,1.70
2023-05-02T07:16:52.190Z,1.90
2023-05-02T07:19:19.210Z,1.92
2023-05-02T07:21:46.163Z,1.83
2023-05-02T07:24:13.062Z,1.50
2023-05-02T07:26:39.982Z,1.42
2023-05-02T07:29:07.033Z,1.60
2023-05-02T07:31:34.031Z,1.80
2023-05-02T07:34:01.045Z,1.67
2023-05-02T07:36:28.101Z,1.65
2023-05-02T07:38:55.019Z,1.42
2023-05-02T07:41:22.124Z,1.45
2023-05-02T07:43:49.443Z,1.50
2023-05-02T07:46:16.511Z,2.15
2023-05-02T07:48:43.532Z,2.10
2023-05-02T07:51:11.561Z,2.00
2023-05-02T07:53:38.492Z,2.60
2023-05-02T07:56:09.064Z,1.80
2023-05-02T07:58:37.322Z,2.88
2023-05-02T08:01:04.630Z,1.80
2023-05-02T08:03:31.917Z,2.10
2023-05-02T08:05:58.986Z,2.10
2023-05-02T08:08:25.946Z,2.00
2023-05-02T08:10:52.885Z,2.10
2023-05-02T08:13:19.836Z,2.40
2023-05-02T08:15:46.812Z,3.00
2023-05-02T08:18:13.747Z,2.33
2023-05-02T08:20:40.895Z,3.08
2023-05-02T08:23:07.853Z,2.90
2023-05-02T08:25:34.878Z,2.72
2023-05-02T08:28:01.792Z,2.33
2023-05-02T08:30:28.725Z,2.03
2023-05-02T08:32:55.711Z,2.30
2023-05-02T08:35:22.785Z,3.33
2023-05-02T08:37:49.724Z,3.10
2023-05-02T08:40:24.714Z,2.97
2023-05-02T08:43:01.548Z,2.45
2023-05-02T08:45:49.915Z,2.83
2023-05-02T08:48:19.054Z,2.55
2023-05-02T08:50:48.392Z,2.50
2023-05-02T08:53:15.637Z,2.35
2023-05-02T08:55:43.042Z,2.80
2023-05-02T08:58:12.094Z,4.10
2023-05-02T09:00:41.564Z,7.43
2023-05-02T09:03:23.392Z,10.18
2023-05-02T09:05:56.128Z,14.27
2023-05-02T09:08:24.361Z,5.13
2023-05-02T09:10:54.316Z,4.70
2023-05-02T09:13:45.927Z,5.07
2023-05-02T09:16:25.391Z,4.68
2023-05-02T09:18:54.934Z,5.10
2023-05-02T09:21:24.126Z,4.68
2023-05-02T09:23:56.137Z,2.70
2023-05-02T09:26:24.815Z,2.80
2023-05-02T09:28:55.287Z,3.33
2023-05-02T09:31:49.829Z,3.22
2023-05-02T09:34:17.962Z,2.72
2023-05-02T09:36:47.379Z,2.90
2023-05-02T09:39:16.752Z,2.70
2023-05-02T09:41:45.521Z,2.20
2023-05-02T09:44:14.431Z,2.10
2023-05-02T09:46:50.696Z,2.22
2023-05-02T09:49:19.176Z,2.50
2023-05-02T09:51:49.981Z,1.70
2023-05-02T09:54:36.639Z,1.40
2023-05-02T09:57:04.032Z,1.30
2023-05-02T09:59:30.927Z,2.28
2023-05-02T10:02:00.353Z,1.73
2023-05-02T10:04:28.844Z,2.22
2023-05-02T10:06:56.271Z,2.40
2023-05-02T10:09:23.718Z,1.30
2023-05-02T10:11:56.512Z,1.92
2023-05-02T10:14:29.521Z,1.47
2023-05-02T10:17:15.879Z,1.63
2023-05-02T10:20:04.416Z,1.80
2023-05-02T10:22:33.553Z,1.50
2023-05-02T10:25:03.357Z,1.30
2023-05-02T10:27:32.078Z,1.70
2023-05-02T10:30:00.574Z,1.60
2023-05-02T10:32:31.142Z,1.17
2023-05-02T10:35:02.787Z,2.10
2023-05-02T10:37:33.606Z,1.08
2023-05-02T10:40:01.439Z,1.00
2023-05-02T10:42:29.943Z,1.20
2023-05-02T10:44:57.145Z,1.20
2023-05-02T10:47:25.317Z,1.30
2023-05-02T10:49:56.819Z,1.50
2023-05-02T10:52:29.113Z,0.88
2023-05-02T10:55:15.877Z,1.50
2023-05-02T10:58:00.977Z,1.00
2023-05-02T11:00:33.804Z,1.10
2023-05-02T11:03:02.161Z,0.93
2023-05-02T11:05:29.588Z,0.80
2023-05-02T11:08:15.844Z,0.98
2023-05-02T11:10:43.551Z,1.10
2023-05-02T11:13:10.564Z,0.95
2023-05-02T11:15:40.397Z,1.35
2023-05-02T11:18:09.133Z,1.77
2023-05-02T11:20:37.236Z,1.45
2023-05-02T11:23:17.157Z,1.17
2023-05-02T11:25:46.427Z,1.20
2023-05-02T11:28:37.461Z,0.90
2023-05-02T11:31:06.627Z,0.80
2023-05-02T11:33:34.417Z,1.17
2023-05-02T11:36:01.555Z,0.88
2023-05-02T11:38:37.587Z,0.77
2023-05-02T11:41:04.739Z,0.90
2023-05-02T11:43:32.590Z,0.80
2023-05-02T11:46:01.781Z,0.98
2023-05-02T11:48:30.685Z,0.70
2023-05-02T11:51:05.650Z,3.65
2023-05-02T11:53:33.368Z,1.10
2023-05-02T11:56:04.963Z,0.80
2023-05-02T11:58:33.923Z,0.90
2023-05-02T12:01:14.702Z,0.65
2023-05-02T12:03:42.318Z,0.80
2023-05-02T12:06:12.443Z,0.80
2023-05-02T12:08:41.055Z,3.00
2023-05-02T12:11:09.209Z,1.27
2023-05-02T12:13:45.693Z,0.85
2023-05-02T12:16:12.917Z,0.77
2023-05-02T12:18:40.942Z,0.90
2023-05-02T12:21:08.903Z,1.10
2023-05-02T12:23:37.437Z,1.92
2023-05-02T12:26:22.043Z,1.17
2023-05-02T12:28:58.212Z,0.63
2023-05-02T12:31:27.305Z,0.50
2023-05-02T12:33:57.663Z,0.90
2023-05-02T12:36:25.353Z,0.50
2023-05-02T12:38:59.229Z,1.63
2023-05-02T12:41:34.736Z,1.55
2023-05-02T12:44:01.871Z,0.60
2023-05-02T12:46:29.151Z,0.70
2023-05-02T12:49:08.379Z,2.75
2023-05-02T12:51:36.437Z,0.63
2023-05-02T12:54:04.442Z,1.27
2023-05-02T12:56:39.187Z,0.70
2023-05-02T12:59:06.559Z,1.80
2023-05-02T13:01:34.728Z,0.80
2023-05-02T13:04:01.976Z,0.57
2023-05-02T13:06:28.929Z,1.00
2023-05-02T13:08:55.854Z,0.80
2023-05-02T13:11:22.860Z,0.70
2023-05-02T13:13:49.774Z,0.70
2023-05-02T13:16:16.743Z,1.20
2023-05-02T13:18:45.649Z,1.00
2023-05-02T13:21:14.834Z,1.00
2023-05-02T13:23:41.790Z,1.23
2023-05-02T13:26:09.014Z,0.80
2023-05-02T13:28:37.425Z,0.70
2023-05-02T13:31:04.716Z,1.00
2023-05-02T13:33:32.071Z,0.70
2023-05-02T13:35:59.397Z,1.48
2023-05-02T13:38:26.855Z,0.95
2023-05-02T13:40:54.215Z,1.00
2023-05-02T13:43:21.341Z,1.40
2023-05-02T13:45:49.163Z,0.80
2023-05-02T13:48:16.332Z,0.90
2023-05-02T13:50:43.488Z,1.10
2023-05-02T13:53:11.274Z,0.75
2023-05-02T13:55:38.269Z,1.00
2023-05-02T13:58:05.900Z,0.90
2023-05-02T14:00:33.084Z,0.82
2023-05-02T14:03:00.170Z,0.80
2023-05-02T14:05:27.282Z,0.80
2023-05-02T14:07:54.214Z,0.80
2023-05-02T14:10:21.107Z,0.60
2023-05-02T14:12:48.854Z,0.60
2023-05-02T14:15:15.981Z,1.30
2023-05-02T14:17:42.972Z,0.57
2023-05-02T14:20:11.162Z,0.70
2023-05-02T14:22:38.096Z,0.60
2023-05-02T14:25:06.019Z,0.70
2023-05-02T14:27:32.955Z,0.52
2023-05-02T14:30:00.255Z,0.80
2023-05-02T14:32:27.602Z,0.80
2023-05-02T14:34:55.393Z,1.00
2023-05-02T14:37:22.297Z,0.70
2023-05-02T14:39:54.938Z,0.60
2023-05-02T14:42:28.136Z,0.50
2023-05-02T14:44:56.061Z,0.70
2023-05-02T14:47:25.483Z,0.73
2023-05-02T14:49:52.643Z,0.70
2023-05-02T14:52:19.662Z,0.70
2023-05-02T14:54:47.172Z,0.77
2023-05-02T14:57:15.640Z,0.88
2023-05-02T14:59:42.923Z,1.02
2023-05-02T15:02:10.118Z,1.10
2023-05-02T15:04:37.482Z,0.90
2023-05-02T15:07:05.228Z,0.88
2023-05-02T15:09:32.222Z,1.85
2023-05-02T15:11:59.125Z,1.98
2023-05-02T15:14:26.125Z,1.70
2023-05-02T15:16:53.502Z,1.20
2023-05-02T15:19:22.693Z,1.20
2023-05-02T15:21:50.078Z,1.13
2023-05-02T15:24:17.090Z,1.27
2023-05-02T15:26:43.980Z,1.10
2023-05-02T15:29:11.294Z,1.05
2023-05-02T15:31:38.273Z,1.10
2023-05-02T15:34:06.177Z,1.40
2023-05-02T15:36:34.002Z,1.17
2023-05-02T15:39:00.997Z,1.10
2023-05-02T15:41:27.982Z,0.93
2023-05-02T15:43:55.074Z,1.17
2023-05-02T15:46:22.264Z,1.10
2023-05-02T15:48:49.626Z,1.30
2023-05-02T15:51:16.873Z,1.20
2023-05-02T15:53:44.982Z,1.20
2023-05-02T15:56:12.436Z,1.58
2023-05-02T15:58:40.488Z,1.35
2023-05-02T16:01:07.684Z,1.63
2023-05-02T16:03:34.992Z,1.45
2023-05-02T16:06:02.265Z,1.85
2023-05-02T16:08:29.443Z,1.48
2023-05-02T16:10:57.889Z,2.10
2023-05-02T16:13:24.818Z,2.15
2023-05-02T16:15:52.553Z,1.30
2023-05-02T16:18:19.539Z,1.60
2023-05-02T16:20:47.802Z,1.40
2023-05-02T16:23:14.852Z,1.40
2023-05-02T16:25:41.936Z,1.35
2023-05-02T16:28:08.936Z,1.30
2023-05-02T16:30:37.126Z,1.00
2023-05-02T16:33:04.168Z,1.90
2023-05-02T16:35:31.201Z,2.42
2023-05-02T16:37:58.086Z,2.58
2023-05-02T16:40:26.827Z,1.17
2023-05-02T16:42:55.365Z,1.73
2023-05-02T16:45:22.451Z,3.58
2023-05-02T16:47:49.408Z,1.75
2023-05-02T16:50:16.661Z,1.70
2023-05-02T16:52:44.471Z,1.42
2023-05-02T16:55:11.530Z,1.58
2023-05-02T16:57:39.169Z,2.10
2023-05-02T17:00:08.299Z,1.27
2023-05-02T17:02:35.392Z,1.42
2023-05-02T17:05:02.511Z,2.05
2023-05-02T17:07:29.437Z,1.10
2023-05-02T17:09:56.522Z,1.27
2023-05-02T17:12:23.497Z,1.45
2023-05-02T17:14:51.657Z,1.55
2023-05-02T17:17:22.716Z,1.20
2023-05-02T17:19:50.756Z,1.30
2023-05-02T17:22:18.981Z,1.17
2023-05-02T17:24:48.524Z,0.90
2023-05-02T17:27:15.618Z,1.10
2023-05-02T17:29:42.744Z,0.93
2023-05-02T17:32:11.294Z,1.00
2023-05-02T17:34:38.842Z,0.82
2023-05-02T17:37:07.312Z,0.80
2023-05-02T17:39:34.242Z,0.80
2023-05-02T17:42:01.584Z,1.00
2023-05-02T17:44:31.482Z,1.10
2023-05-02T17:46:58.679Z,1.30
2023-05-02T17:49:25.812Z,1.00
2023-05-02T17:51:52.813Z,0.93
2023-05-02T17:54:19.821Z,1.15
2023-05-02T17:56:46.973Z,0.95
2023-05-02T17:59:14.183Z,1.08
2023-05-02T18:01:41.105Z,1.20
2023-05-02T18:04:12.587Z,1.38
2023-05-02T18:06:39.745Z,0.90
2023-05-02T18:09:07.360Z,1.48
2023-05-02T18:11:40.260Z,1.10
2023-05-02T18:14:07.314Z,1.23
2023-05-02T18:16:36.290Z,1.70
2023-05-02T18:19:03.503Z,1.70
2023-05-02T18:21:33.921Z,1.35
2023-05-02T18:24:00.880Z,1.10
2023-05-02T18:26:27.859Z,1.30
2023-05-02T18:28:54.810Z,1.50
2023-05-02T18:31:21.894Z,1.17
2023-05-02T18:33:49.163Z,1.10
2023-05-02T18:36:20.738Z,1.00
2023-05-02T18:38:47.879Z,1.38
2023-05-02T18:41:14.875Z,1.50
2023-05-02T18:43:42.146Z,2.10
2023-05-02T18:46:09.361Z,2.58
2023-05-02T18:48:36.475Z,1.42
2023-05-02T18:51:03.663Z,1.98
2023-05-02T18:53:31.155Z,2.60
2023-05-02T18:55:58.091Z,2.00
2023-05-02T18:58:25.115Z,1.70
2023-05-02T19:00:52.089Z,1.55
2023-05-02T19:03:19.491Z,1.58
2023-05-02T19:05:47.024Z,1.50
2023-05-02T19:08:14.207Z,2.90
2023-05-02T19:10:42.009Z,2.15
2023-05-02T19:13:10.596Z,1.70
2023-05-02T19:15:37.673Z,1.67
2023-05-02T19:18:05.503Z,1.40
2023-05-02T19:20:32.425Z,1.67
2023-05-02T19:23:15.283Z,1.45
2023-05-02T19:25:46.768Z,1.70
2023-05-02T19:28:15.952Z,1.88
2023-05-02T19:30:44.481Z,2.33
2023-05-02T19:33:12.567Z,2.40
2023-05-02T19:35:40.316Z,2.20
2023-05-02T19:38:07.433Z,2.40
2023-05-02T19:40:34.609Z,2.03
2023-05-02T19:43:01.661Z,2.30
2023-05-02T19:45:30.027Z,1.88
2023-05-02T19:47:57.171Z,2.78
2023-05-02T19:50:26.164Z,2.92
2023-05-02T19:52:53.085Z,3.30
2023-05-02T19:55:21.393Z,3.20
2023-05-02T19:57:49.011Z,3.03
2023-05-02T20:00:16.302Z,3.17
2023-05-02T20:02:45.108Z,3.30
2023-05-02T20:05:12.508Z,3.20
2023-05-02T20:07:39.546Z,2.80
2023-05-02T20:10:07.762Z,2.55
2023-05-02T20:12:34.709Z,2.25
2023-05-02T20:15:02.427Z,3.00
2023-05-02T20:17:29.433Z,2.88
2023-05-02T20:19:57.517Z,2.97
2023-05-02T20:22:24.580Z,2.72
2023-05-02T20:24:51.582Z,2.80
2023-05-02T20:27:18.507Z,2.55
2023-05-02T20:29:45.612Z,2.40
2023-05-02T20:32:12.651Z,2.13
2023-05-02T20:34:40.393Z,2.22
2023-05-02T20:37:07.412Z,2.20
2023-05-02T20:39:34.510Z,2.10
2023-05-02T20:42:01.535Z,2.60
2023-05-02T20:44:30.101Z,2.08
2023-05-02T20:46:57.097Z,2.28
2023-05-02T20:49:24.519Z,2.15
2023-05-02T20:51:51.655Z,2.08
2023-05-02T20:54:18.850Z,2.10
2023-05-02T20:56:45.930Z,2.20
2023-05-02T20:59:12.865Z,1.92
2023-05-02T21:01:39.895Z,2.10
2023-05-02T21:04:06.959Z,2.08
2023-05-02T21:06:34.070Z,2.03
2023-05-02T21:09:02.202Z,2.25
2023-05-02T21:11:29.482Z,2.50
2023-05-02T21:13:56.649Z,1.80
2023-05-02T21:16:24.224Z,1.95
2023-05-02T21:18:52.307Z,2.30
2023-05-02T21:21:19.267Z,2.35
2023-05-02T21:23:46.413Z,2.78
2023-05-02T21:26:13.444Z,2.75
2023-05-02T21:28:40.817Z,2.70
2023-05-02T21:31:07.989Z,2.38
2023-05-02T21:33:35.736Z,2.33
2023-05-02T21:36:03.010Z,2.40
2023-05-02T21:38:30.529Z,2.55
2023-05-02T21:41:03.044Z,2.50
2023-05-02T21:43:31.818Z,2.08
2023-05-02T21:45:58.783Z,2.72
2023-05-02T21:48:25.935Z,2.13
2023-05-02T21:50:53.102Z,2.47
2023-05-02T21:53:20.121Z,2.45
2023-05-02T21:55:47.094Z,2.30
2023-05-02T21:58:14.075Z,2.38
2023-05-02T22:00:42.037Z,2.15
2023-05-02T22:03:11.706Z,1.95
2023-05-02T22:05:40.011Z,1.92
2023-05-02T22:08:11.196Z,2.25
2023-05-02T22:10:43.124Z,2.33
2023-05-02T22:13:12.452Z,2.30
2023-05-02T22:15:46.828Z,1.90
2023-05-02T22:18:15.054Z,2.38
2023-05-02T22:20:42.450Z,2.20
2023-05-02T22:23:10.382Z,2.00
2023-05-02T22:25:40.565Z,2.05
2023-05-02T22:28:11.335Z,2.17
2023-05-02T22:30:39.776Z,1.80
2023-05-02T22:33:07.705Z,2.03
2023-05-02T22:35:36.726Z,2.15
2023-05-02T22:38:04.051Z,2.55
2023-05-02T22:40:33.826Z,2.45
2023-05-02T22:43:01.339Z,2.00
2023-05-02T22:45:28.360Z,2.10
2023-05-02T22:47:55.689Z,2.05
2023-05-02T22:50:22.743Z,1.90
2023-05-02T22:52:49.686Z,2.38
2023-05-02T22:55:16.730Z,1.80
2023-05-02T22:57:43.769Z,2.20
2023-05-02T23:00:11.274Z,1.77
2023-05-02T23:02:38.634Z,3.28
2023-05-02T23:05:06.972Z,2.30
2023-05-02T23:07:34.175Z,2.30
2023-05-02T23:10:01.594Z,2.08
2023-05-02T23:12:28.860Z,2.17
2023-05-02T23:14:55.909Z,2.20
2023-05-02T23:17:23.244Z,2.20
2023-05-02T23:19:50.524Z,2.08
2023-05-02T23:22:17.541Z,2.25
2023-05-02T23:24:46.963Z,2.20
2023-05-02T23:27:14.039Z,2.40
2023-05-02T23:29:40.969Z,1.73
2023-05-02T23:32:08.132Z,2.03
2023-05-02T23:34:38.649Z,2.25
2023-05-02T23:37:06.881Z,2.30
2023-05-02T23:39:34.321Z,2.38
2023-05-02T23:42:03.679Z,2.20
2023-05-02T23:44:31.335Z,2.67
2023-05-02T23:47:01.401Z,2.50
2023-05-02T23:49:28.389Z,2.58
2023-05-02T23:51:55.403Z,2.17
2023-05-02T23:54:22.300Z,2.72
2023-05-02T23:56:49.262Z,2.15
2023-05-02T23:59:16.256Z,2.55
